createdAt,value
2022-10-11T00:00:20.977Z,1.77
2022-10-11T00:02:50.415Z,6.37
2022-10-11T00:05:18.589Z,4.37
2022-10-11T00:07:46.525Z,2.03
2022-10-11T00:10:14.617Z,2.27
2022-10-11T00:12:42.686Z,8.83
2022-10-11T00:15:14.257Z,1.97
2022-10-11T00:17:41.967Z,1.53
2022-10-11T00:20:13.048Z,2.60
2022-10-11T00:22:41.757Z,1.80
2022-10-11T00:25:15.019Z,4.07
2022-10-11T00:27:42.957Z,3.00
2022-10-11T00:30:12.454Z,4.57
2022-10-11T00:32:40.811Z,0.87
2022-10-11T00:35:09.646Z,3.60
2022-10-11T00:37:40.617Z,6.57
2022-10-11T00:40:11.812Z,3.40
2022-10-11T00:42:39.764Z,4.00
2022-10-11T00:45:47.926Z,1.97
2022-10-11T00:48:22.896Z,2.17
2022-10-11T00:50:51.217Z,3.70
2022-10-11T00:53:20.740Z,2.67
2022-10-11T00:55:52.632Z,6.20
2022-10-11T00:58:21.587Z,2.83
2022-10-11T01:00:49.460Z,4.97
2022-10-11T01:03:21.067Z,3.40
2022-10-11T01:05:49.193Z,1.33
2022-10-11T01:08:17.250Z,1.53
2022-10-11T01:10:46.830Z,3.80
2022-10-11T01:13:26.823Z,4.33
2022-10-11T01:16:02.455Z,1.90
2022-10-11T01:18:38.951Z,3.07
2022-10-11T01:21:15.053Z,2.73
2022-10-11T01:24:31.573Z,1.60
2022-10-11T01:27:26.897Z,5.87
2022-10-11T01:30:06.449Z,4.93
2022-10-11T01:32:41.817Z,3.57
2022-10-11T01:35:17.466Z,4.53
2022-10-11T01:37:51.059Z,2.27
2022-10-11T01:40:24.189Z,3.20
2022-10-11T01:42:53.823Z,6.10
2022-10-11T01:45:22.909Z,6.17
2022-10-11T01:48:03.093Z,1.20
2022-10-11T01:50:46.421Z,3.07
2022-10-11T01:53:30.738Z,2.43
2022-10-11T01:56:11.122Z,9.63
2022-10-11T01:58:55.876Z,5.40
2022-10-11T02:01:34.368Z,2.20
2022-10-11T02:04:13.530Z,1.73
2022-10-11T02:06:52.053Z,6.17
2022-10-11T02:09:26.724Z,3.17
2022-10-11T02:11:58.170Z,5.27
2022-10-11T02:14:31.570Z,7.33
2022-10-11T02:17:04.517Z,9.53
2022-10-11T02:19:38.559Z,7.23
2022-10-11T02:22:11.254Z,6.17
2022-10-11T02:24:42.314Z,9.67
2022-10-11T02:27:12.568Z,8.43
2022-10-11T02:29:43.254Z,10.67
2022-10-11T02:32:12.615Z,9.83
2022-10-11T02:34:48.351Z,5.17
2022-10-11T02:37:21.726Z,6.50
2022-10-11T02:39:55.578Z,8.00
2022-10-11T02:42:27.003Z,1.77
2022-10-11T02:45:00.970Z,6.67
2022-10-11T02:47:30.699Z,6.77
2022-10-11T02:50:01.052Z,4.33
2022-10-11T02:52:29.283Z,8.30
2022-10-11T02:54:57.302Z,5.43
2022-10-11T02:57:25.261Z,7.53
2022-10-11T02:59:53.117Z,4.13
2022-10-11T03:02:21.453Z,5.60
2022-10-11T03:04:49.547Z,4.37
2022-10-11T03:07:18.880Z,2.87
2022-10-11T03:09:47.138Z,6.50
2022-10-11T03:12:15.159Z,6.23
2022-10-11T03:14:43.142Z,2.97
2022-10-11T03:17:34.392Z,7.30
2022-10-11T03:19:59.114Z,3.63
2022-10-11T03:22:28.656Z,1.97
2022-10-11T03:25:00.993Z,4.27
2022-10-11T03:27:31.510Z,4.67
2022-10-11T03:29:59.435Z,5.60
2022-10-11T03:32:27.690Z,15.50
2022-10-11T03:34:55.936Z,5.43
2022-10-11T03:37:24.214Z,6.40
2022-10-11T03:39:53.725Z,5.13
2022-10-11T03:42:21.905Z,5.37
2022-10-11T03:44:52.032Z,10.27
2022-10-11T03:47:20.172Z,7.33
2022-10-11T03:49:48.210Z,8.50
2022-10-11T03:52:16.251Z,7.27
2022-10-11T03:54:44.449Z,5.43
2022-10-11T03:57:13.769Z,5.00
2022-10-11T03:59:41.768Z,5.50
2022-10-11T04:02:09.870Z,4.27
2022-10-11T04:04:37.882Z,6.27
2022-10-11T04:07:05.806Z,8.87
2022-10-11T04:09:33.750Z,3.30
2022-10-11T04:12:01.711Z,7.97
2022-10-11T04:14:31.410Z,8.10
2022-10-11T04:17:00.502Z,3.13
2022-10-11T04:19:29.097Z,3.80
2022-10-11T04:21:57.270Z,3.90
2022-10-11T04:24:25.335Z,3.63
2022-10-11T04:26:53.368Z,2.73
2022-10-11T04:29:21.455Z,4.60
2022-10-11T04:31:51.250Z,3.23
2022-10-11T04:34:19.526Z,2.30
2022-10-11T04:36:50.024Z,3.97
2022-10-11T04:39:18.343Z,2.77
2022-10-11T04:41:46.433Z,4.40
2022-10-11T04:44:14.427Z,4.30
2022-10-11T04:46:42.371Z,5.10
2022-10-11T04:49:11.714Z,6.33
2022-10-11T04:51:39.609Z,4.23
2022-10-11T04:54:07.514Z,6.23
2022-10-11T04:56:35.545Z,3.43
2022-10-11T04:59:03.819Z,3.63
2022-10-11T05:01:31.799Z,8.30
2022-10-11T05:03:59.755Z,2.40
2022-10-11T05:06:29.210Z,8.73
2022-10-11T05:08:57.066Z,4.07
2022-10-11T05:11:25.038Z,2.77
2022-10-11T05:13:52.922Z,4.63
2022-10-11T05:16:20.803Z,1.53
2022-10-11T05:18:48.702Z,12.47
2022-10-11T05:21:18.993Z,4.97
2022-10-11T05:23:49.352Z,3.83
2022-10-11T05:26:17.828Z,7.60
2022-10-11T05:28:45.994Z,5.23
2022-10-11T05:31:14.257Z,9.87
2022-10-11T05:33:42.549Z,4.43
2022-10-11T05:36:10.814Z,5.60
2022-10-11T05:38:39.564Z,3.67
2022-10-11T05:41:10.245Z,3.43
2022-10-11T05:43:38.130Z,3.90
2022-10-11T05:46:07.010Z,3.43
2022-10-11T05:48:35.232Z,2.83
2022-10-11T05:51:04.248Z,9.60
2022-10-11T05:53:32.601Z,7.83
2022-10-11T05:56:00.649Z,2.20
2022-10-11T05:58:30.126Z,1.80
2022-10-11T06:00:58.398Z,3.80
2022-10-11T06:03:26.480Z,5.43
2022-10-11T06:05:57.027Z,6.53
2022-10-11T06:08:25.385Z,8.63
2022-10-11T06:10:53.339Z,10.33
2022-10-11T06:13:21.312Z,4.87
2022-10-11T06:15:50.670Z,2.00
2022-10-11T06:18:18.647Z,4.40
2022-10-11T06:20:46.620Z,2.73
2022-10-11T06:23:14.499Z,6.10
2022-10-11T06:25:42.329Z,5.70
2022-10-11T06:28:10.294Z,6.77
2022-10-11T06:30:39.952Z,2.87
2022-10-11T06:33:09.329Z,7.80
2022-10-11T06:35:37.377Z,8.53
2022-10-11T06:38:05.385Z,2.93
2022-10-11T06:40:33.437Z,2.63
2022-10-11T06:43:01.477Z,5.57
2022-10-11T06:45:29.528Z,3.27
2022-10-11T06:47:57.588Z,4.40
2022-10-11T06:50:54.488Z,3.00
2022-10-11T06:53:14.912Z,6.43
2022-10-11T06:55:42.926Z,7.07
2022-10-11T06:58:10.960Z,7.63
2022-10-11T07:00:38.987Z,2.80
2022-10-11T07:03:06.997Z,6.17
2022-10-11T07:05:36.399Z,5.17
2022-10-11T07:08:04.554Z,5.90
2022-10-11T07:10:32.581Z,10.20
2022-10-11T07:13:00.572Z,6.83
2022-10-11T07:15:28.653Z,1.57
2022-10-11T07:17:56.728Z,6.80
2022-10-11T07:20:24.660Z,1.67
2022-10-11T07:22:54.242Z,4.87
2022-10-11T07:25:22.327Z,7.23
2022-10-11T07:27:50.055Z,6.90
2022-10-11T07:30:18.244Z,4.77
2022-10-11T07:32:46.230Z,7.33
2022-10-11T07:35:14.228Z,9.57
2022-10-11T07:37:42.254Z,5.13
2022-10-11T07:40:12.357Z,12.07
2022-10-11T07:42:40.465Z,4.23
2022-10-11T07:45:09.201Z,7.20
2022-10-11T07:47:37.207Z,4.87
2022-10-11T07:50:05.706Z,5.17
2022-10-11T07:52:33.553Z,3.17
2022-10-11T07:55:01.426Z,10.30
2022-10-11T07:57:30.833Z,13.37
2022-10-11T07:59:58.791Z,6.17
2022-10-11T08:02:26.729Z,8.53
2022-10-11T08:04:54.789Z,6.07
2022-10-11T08:07:22.693Z,2.03
2022-10-11T08:09:50.755Z,10.67
2022-10-11T08:12:18.659Z,5.27
2022-10-11T08:14:48.051Z,5.87
2022-10-11T08:17:16.035Z,7.20
2022-10-11T08:19:43.850Z,4.77
2022-10-11T08:22:11.847Z,8.10
2022-10-11T08:24:39.901Z,6.60
2022-10-11T08:27:08.120Z,4.17
2022-10-11T08:33:08.708Z,3.37
2022-10-11T08:36:06.596Z,6.87
2022-10-11T08:38:36.912Z,10.47
2022-10-11T08:41:19.365Z,4.90
2022-10-11T08:44:15.701Z,3.70
2022-10-11T08:47:19.751Z,3.40
2022-10-11T08:50:03.131Z,7.10
2022-10-11T08:52:58.233Z,5.40
2022-10-11T08:55:57.957Z,4.00
2022-10-11T09:03:06.412Z,4.23
2022-10-11T09:05:55.201Z,6.23
2022-10-11T09:08:52.743Z,2.20
2022-10-11T09:12:50.306Z,2.20
2022-10-11T09:15:48.633Z,2.40
2022-10-11T09:20:52.980Z,2.77
2022-10-11T09:23:39.210Z,2.07
2022-10-11T09:26:10.875Z,3.37
2022-10-11T09:28:51.067Z,2.80
2022-10-11T09:31:19.182Z,2.43
2022-10-11T09:33:48.524Z,4.57
2022-10-11T09:36:26.563Z,5.77
2022-10-11T09:39:06.429Z,1.43
2022-10-11T09:41:39.814Z,3.97
2022-10-11T09:44:08.738Z,1.63
2022-10-11T09:46:38.803Z,1.90
2022-10-11T09:49:12.636Z,3.20
2022-10-11T09:51:44.609Z,3.97
2022-10-11T09:54:12.631Z,3.33
2022-10-11T09:56:44.863Z,5.13
2022-10-11T09:59:27.494Z,5.70
2022-10-11T10:02:22.553Z,3.20
2022-10-11T10:05:02.925Z,4.30
2022-10-11T10:07:34.343Z,5.03
2022-10-11T10:10:31.718Z,5.00
2022-10-11T10:13:01.778Z,2.30
2022-10-11T10:15:32.000Z,2.37
2022-10-11T10:18:00.707Z,6.43
2022-10-11T10:20:32.576Z,1.27
2022-10-11T10:23:04.980Z,5.33
2022-10-11T10:25:39.563Z,1.50
2022-10-11T10:28:21.299Z,1.07
2022-10-11T10:30:54.485Z,3.87
2022-10-11T10:33:23.990Z,5.53
2022-10-11T10:35:57.202Z,5.53
2022-10-11T10:38:30.306Z,3.50
2022-10-11T10:41:03.866Z,3.33
2022-10-11T10:43:36.005Z,2.33
2022-10-11T10:46:16.869Z,2.70
2022-10-11T10:51:48.902Z,0.90
2022-10-11T10:54:29.081Z,2.43
2022-10-11T10:57:00.841Z,1.50
2022-10-11T11:00:00.549Z,3.00
2022-10-11T11:02:40.772Z,2.43
2022-10-11T11:05:21.324Z,3.30
2022-10-11T11:07:55.857Z,5.90
2022-10-11T11:10:31.087Z,2.43
2022-10-11T11:13:15.959Z,5.20
2022-10-11T11:15:51.716Z,4.67
2022-10-11T11:18:29.745Z,4.57
2022-10-11T11:21:12.737Z,2.47
2022-10-11T11:23:48.565Z,1.97
2022-10-11T11:26:28.598Z,3.83
2022-10-11T11:29:12.585Z,2.20
2022-10-11T11:31:55.772Z,1.70
2022-10-11T11:34:27.627Z,4.30
2022-10-11T11:36:59.379Z,3.20
2022-10-11T11:39:31.022Z,4.47
2022-10-11T11:42:07.405Z,10.10
2022-10-11T11:44:39.672Z,3.70
2022-10-11T11:47:12.674Z,4.37
2022-10-11T11:49:46.118Z,6.03
2022-10-11T11:52:21.196Z,4.33
2022-10-11T11:54:58.046Z,2.57
2022-10-11T11:57:40.818Z,1.73
2022-10-11T12:00:15.071Z,8.50
2022-10-11T12:02:48.766Z,9.23
2022-10-11T12:05:19.545Z,5.33
2022-10-11T12:07:55.154Z,2.93
2022-10-11T12:10:31.992Z,4.33
2022-10-11T12:13:18.261Z,5.93
2022-10-11T12:16:10.917Z,3.60
2022-10-11T12:18:53.348Z,0.80
2022-10-11T12:21:30.592Z,2.13
2022-10-11T12:24:00.712Z,2.73
2022-10-11T12:26:40.951Z,1.00
2022-10-11T12:29:47.185Z,8.77
2022-10-11T12:32:52.113Z,5.77
2022-10-11T12:36:05.588Z,2.53
2022-10-11T12:38:40.212Z,5.10
2022-10-11T12:41:39.900Z,5.00
2022-10-11T12:44:14.302Z,5.93
2022-10-11T12:47:11.104Z,5.07
2022-10-11T12:49:56.981Z,0.67
2022-10-11T12:52:36.012Z,3.23
2022-10-11T12:55:41.302Z,1.40
2022-10-11T12:58:26.413Z,4.03
2022-10-11T13:01:19.789Z,2.40
2022-10-11T13:03:53.491Z,2.83
2022-10-11T13:06:25.040Z,0.87
2022-10-11T13:08:57.017Z,4.07
2022-10-11T13:11:29.097Z,1.87
2022-10-11T13:13:59.838Z,5.73
2022-10-11T13:16:30.254Z,1.40
2022-10-11T13:19:00.850Z,1.73
2022-10-11T13:21:33.221Z,3.43
2022-10-11T13:24:03.093Z,5.50
2022-10-11T13:26:32.602Z,4.27
2022-10-11T13:29:01.363Z,3.57
2022-10-11T13:31:29.806Z,2.47
2022-10-11T13:34:00.664Z,1.37
2022-10-11T13:36:29.657Z,1.27
2022-10-11T13:38:59.881Z,0.87
2022-10-11T13:41:30.556Z,4.53
2022-10-11T13:44:01.011Z,3.40
2022-10-11T13:46:31.715Z,3.13
2022-10-11T13:49:03.370Z,3.60
2022-10-11T13:51:36.278Z,4.07
2022-10-11T13:54:07.194Z,2.20
2022-10-11T13:56:43.362Z,4.63
2022-10-11T13:59:18.605Z,5.30
2022-10-11T14:01:47.703Z,5.20
2022-10-11T14:04:18.357Z,3.60
2022-10-11T14:06:49.270Z,1.60
2022-10-11T14:09:23.087Z,6.13
2022-10-11T14:11:51.675Z,3.20
2022-10-11T14:14:30.950Z,1.57
2022-10-11T14:17:00.363Z,2.93
2022-10-11T14:19:29.777Z,3.90
2022-10-11T14:21:58.148Z,0.90
2022-10-11T14:24:26.254Z,3.97
2022-10-11T14:26:57.767Z,2.70
2022-10-11T14:29:27.557Z,2.50
2022-10-11T14:32:00.290Z,6.80
2022-10-11T14:34:30.526Z,3.63
2022-10-11T14:36:58.714Z,2.77
2022-10-11T14:39:28.879Z,3.47
2022-10-11T14:41:56.998Z,4.07
2022-10-11T14:44:25.220Z,1.60
2022-10-11T14:46:54.987Z,2.53
2022-10-11T14:49:25.110Z,8.20
2022-10-11T14:51:56.028Z,2.80
2022-10-11T14:54:25.528Z,1.50
2022-10-11T14:56:55.330Z,2.00
2022-10-11T14:59:25.165Z,3.73
2022-10-11T15:01:54.168Z,5.20
2022-10-11T15:04:23.045Z,1.97
2022-10-11T15:06:51.611Z,3.53
2022-10-11T15:09:21.682Z,1.33
2022-10-11T15:11:50.976Z,2.43
2022-10-11T15:14:19.209Z,2.93
2022-10-11T15:16:47.338Z,3.07
2022-10-11T15:19:17.284Z,2.83
2022-10-11T15:21:45.777Z,2.17
2022-10-11T15:24:13.884Z,2.70
2022-10-11T15:26:45.149Z,3.03
2022-10-11T15:29:13.546Z,1.73
2022-10-11T15:31:41.431Z,1.40
2022-10-11T15:34:09.352Z,5.13
2022-10-11T15:36:37.217Z,2.63
2022-10-11T15:39:05.334Z,1.57
2022-10-11T15:41:33.460Z,1.67
2022-10-11T15:44:02.812Z,4.97
2022-10-11T15:46:30.889Z,2.50
2022-10-11T15:49:00.462Z,1.33
2022-10-11T15:51:31.277Z,4.47
2022-10-11T15:53:59.179Z,6.27
2022-10-11T15:56:31.543Z,6.03
2022-10-11T15:59:03.001Z,3.93
2022-10-11T16:01:31.081Z,1.93
2022-10-11T16:03:59.076Z,5.37
2022-10-11T16:06:28.016Z,8.47
2022-10-11T16:08:55.970Z,2.83
2022-10-11T16:11:24.036Z,2.00
2022-10-11T16:13:52.009Z,4.53
2022-10-11T16:16:21.398Z,10.10
2022-10-11T16:18:51.212Z,4.13
2022-10-11T16:21:20.885Z,12.13
2022-10-11T16:23:48.833Z,8.03
2022-10-11T16:26:17.450Z,10.97
2022-10-11T16:28:45.409Z,6.50
2022-10-11T16:31:18.040Z,2.53
2022-10-11T16:33:47.842Z,5.70
2022-10-11T16:36:34.567Z,6.03
2022-10-11T16:39:05.696Z,6.63
2022-10-11T16:41:33.882Z,4.57
2022-10-11T16:44:01.880Z,2.63
2022-10-11T16:46:30.272Z,3.50
2022-10-11T16:48:59.976Z,7.40
2022-10-11T16:51:28.091Z,5.93
2022-10-11T16:53:56.013Z,5.60
2022-10-11T16:56:25.063Z,4.23
2022-10-11T16:58:53.774Z,5.10
2022-10-11T17:01:22.141Z,4.83
2022-10-11T17:03:50.526Z,9.63
2022-10-11T17:06:20.991Z,7.63
2022-10-11T17:08:48.976Z,6.43
2022-10-11T17:11:17.846Z,4.17
2022-10-11T17:13:45.984Z,5.03
2022-10-11T17:16:13.937Z,6.53
2022-10-11T17:18:41.853Z,9.43
2022-10-11T17:21:12.821Z,5.73
2022-10-11T17:23:42.913Z,5.93
2022-10-11T17:26:15.279Z,7.90
2022-10-11T17:28:43.241Z,8.63
2022-10-11T17:31:11.344Z,9.47
2022-10-11T17:33:39.543Z,8.50
2022-10-11T17:36:15.839Z,11.77
2022-10-11T17:38:45.297Z,7.63
2022-10-11T17:41:13.326Z,9.03
2022-10-11T17:43:41.638Z,10.67
2022-10-11T17:46:10.042Z,12.47
2022-10-11T17:48:39.372Z,9.80
2022-10-11T17:51:09.639Z,10.13
2022-10-11T17:53:38.158Z,12.73
2022-10-11T17:56:16.327Z,10.80
2022-10-11T17:58:45.162Z,10.93
2022-10-11T18:01:16.502Z,16.63
2022-10-11T18:03:44.892Z,12.30
2022-10-11T18:06:14.725Z,13.77
2022-10-11T18:08:42.939Z,15.00
2022-10-11T18:11:13.642Z,17.03
2022-10-11T18:13:45.938Z,16.10
2022-10-11T18:16:14.777Z,18.97
2022-10-11T18:18:43.480Z,49.60
2022-10-11T18:21:11.865Z,15.70
2022-10-11T18:23:40.110Z,48.07
2022-10-11T18:26:15.071Z,35.60
2022-10-11T18:28:43.625Z,21.67
2022-10-11T18:31:14.477Z,26.90
2022-10-11T18:33:45.527Z,28.20
2022-10-11T18:36:14.849Z,23.10
2022-10-11T18:38:46.506Z,22.57
2022-10-11T18:41:18.940Z,18.57
2022-10-11T18:43:51.672Z,21.17
2022-10-11T18:46:23.584Z,18.90
2022-10-11T18:48:54.906Z,20.90
2022-10-11T18:51:25.167Z,21.37
2022-10-11T18:53:54.072Z,20.90
2022-10-11T18:56:24.844Z,21.83
2022-10-11T18:58:55.253Z,30.07
2022-10-11T19:01:25.334Z,22.47
2022-10-11T19:03:56.629Z,22.87
2022-10-11T19:06:26.380Z,19.93
2022-10-11T19:08:56.133Z,18.67
2022-10-11T19:11:26.156Z,24.33
2022-10-11T19:13:58.107Z,19.37
2022-10-11T19:16:27.315Z,24.10
2022-10-11T19:18:55.611Z,17.13
2022-10-11T19:21:24.038Z,22.80
2022-10-11T19:23:52.743Z,20.77
2022-10-11T19:26:22.816Z,19.90
2022-10-11T19:28:56.625Z,24.83
2022-10-11T19:31:24.897Z,28.80
2022-10-11T19:33:58.114Z,26.17
2022-10-11T19:36:26.825Z,28.33
2022-10-11T19:38:56.867Z,23.33
2022-10-11T19:41:25.808Z,30.50
2022-10-11T19:43:58.107Z,27.93
2022-10-11T19:49:17.629Z,26.83
2022-10-11T19:51:45.718Z,27.43
2022-10-11T19:54:15.171Z,23.77
2022-10-11T19:56:44.623Z,20.70
2022-10-11T19:59:14.879Z,19.93
2022-10-11T20:01:46.626Z,18.27
2022-10-11T20:04:39.687Z,21.40
2022-10-11T20:07:06.087Z,19.07
2022-10-11T20:09:34.011Z,18.83
2022-10-11T20:12:01.928Z,20.77
2022-10-11T20:14:31.278Z,20.03
2022-10-11T20:16:59.234Z,25.30
2022-10-11T20:19:31.056Z,23.00
2022-10-11T20:22:00.155Z,22.13
2022-10-11T20:24:33.134Z,24.40
2022-10-11T20:27:02.370Z,24.87
2022-10-11T20:29:31.712Z,34.20
2022-10-11T20:31:59.929Z,16.87
2022-10-11T20:34:28.915Z,22.53
2022-10-11T20:36:57.110Z,20.47
2022-10-11T20:39:25.457Z,18.90
2022-10-11T20:41:53.507Z,20.77
2022-10-11T20:44:21.443Z,23.57
2022-10-11T20:46:50.704Z,19.07
2022-10-11T20:49:19.927Z,23.10
2022-10-11T20:51:48.196Z,21.90
2022-10-11T20:54:16.609Z,28.50
2022-10-11T20:56:44.633Z,21.40
2022-10-11T20:59:12.596Z,22.47
2022-10-11T21:01:41.794Z,20.67
2022-10-11T21:04:18.459Z,26.90
2022-10-11T21:06:46.914Z,26.00
2022-10-11T21:09:16.676Z,29.57
2022-10-11T21:11:46.100Z,32.50
2022-10-11T21:14:14.333Z,23.50
2022-10-11T21:16:42.525Z,19.50
2022-10-11T21:19:15.908Z,23.40
2022-10-11T21:21:50.947Z,26.43
2022-10-11T21:24:21.665Z,23.90
2022-10-11T21:26:49.552Z,22.10
2022-10-11T21:29:18.141Z,20.03
2022-10-11T21:31:46.256Z,19.77
2022-10-11T21:34:15.909Z,21.57
2022-10-11T21:36:44.447Z,18.03
2022-10-11T21:39:12.369Z,16.30
2022-10-11T21:41:42.298Z,18.53
2022-10-11T21:44:10.361Z,14.70
2022-10-11T21:49:27.758Z,17.07
2022-10-11T21:51:55.712Z,20.27
2022-10-11T21:54:23.801Z,18.73
2022-10-11T21:56:51.905Z,19.13
2022-10-11T21:59:20.368Z,15.27
2022-10-11T22:01:48.491Z,24.13
2022-10-11T22:04:16.535Z,20.73
2022-10-11T22:06:45.838Z,19.90
2022-10-11T22:09:14.343Z,22.47
2022-10-11T22:11:42.378Z,17.40
2022-10-11T22:14:10.420Z,21.23
2022-10-11T22:16:38.590Z,23.30
2022-10-11T22:19:06.605Z,13.07
2022-10-11T22:21:34.659Z,14.77
2022-10-11T22:24:04.130Z,10.80
2022-10-11T22:26:35.754Z,11.10
2022-10-11T22:29:03.823Z,14.00
2022-10-11T22:31:31.962Z,10.10
2022-10-11T22:34:01.545Z,11.17
2022-10-11T22:36:31.098Z,15.80
2022-10-11T22:38:59.120Z,11.57
2022-10-11T22:41:28.484Z,13.30
2022-10-11T22:43:56.942Z,14.97
2022-10-11T22:46:25.251Z,12.87
2022-10-11T22:48:53.232Z,14.23
2022-10-11T22:51:21.209Z,11.00
2022-10-11T22:53:49.585Z,12.30
2022-10-11T22:56:17.660Z,9.27
2022-10-11T22:58:46.957Z,7.53
2022-10-11T23:01:16.105Z,9.83
2022-10-11T23:03:44.422Z,6.17
2022-10-11T23:06:12.670Z,8.43
2022-10-11T23:08:40.809Z,7.37
2022-10-11T23:11:09.159Z,8.10
2022-10-11T23:13:37.617Z,10.10
2022-10-11T23:16:12.504Z,6.27
2022-10-11T23:18:41.183Z,7.07
2022-10-11T23:21:09.767Z,9.37
2022-10-11T23:23:39.964Z,8.13
2022-10-11T23:26:10.161Z,11.23
2022-10-11T23:28:38.548Z,8.67
2022-10-11T23:31:13.007Z,10.53
2022-10-11T23:33:41.119Z,10.20
2022-10-11T23:36:15.171Z,5.40
2022-10-11T23:38:43.514Z,8.67
2022-10-11T23:41:12.157Z,5.97
2022-10-11T23:43:40.053Z,7.37
2022-10-11T23:46:08.187Z,7.23
2022-10-11T23:48:37.460Z,6.63
2022-10-11T23:51:05.684Z,7.77
2022-10-11T23:53:33.772Z,5.83
2022-10-11T23:56:01.767Z,10.00
2022-10-11T23:58:30.240Z,9.00
